Time;durP1;ratioP1;P1;durP2;ratioP2;P2;SDS_P1;SDS_P2;PMS_P1;PMS_P2;Temp;Humidity;BMP_temperature;BMP_pressure;BME280_temperature;BME280_humidity;BME280_pressure;Samples;Min_cycle;Max_cycle;Signal;HPM_P1;HPM_P2
2022/01/30 00:00:00;;;;;;;37.35;6.00;;;6.70;99.90;;;;;;5112110;28;20122;-73
2022/01/30 00:02:29;;;;;;;40.92;6.68;;;6.30;99.90;;;;;;5111031;28;20044;-72
2022/01/30 00:04:55;;;;;;;34.35;5.82;;;6.40;99.90;;;;;;5112245;28;20047;-71
2022/01/30 00:07:21;;;;;;;28.98;5.68;;;6.60;99.90;;;;;;5093445;28;20046;-72
2022/01/30 00:09:48;;;;;;;36.42;5.57;;;6.60;99.90;;;;;;5111387;28;20495;-72
2022/01/30 00:12:17;;;;;;;33.50;5.72;;;;;;;;;;5110604;28;20491;-72
2022/01/30 00:14:43;;;;;;;31.20;5.53;;;6.60;99.90;;;;;;5111496;28;20046;-73
2022/01/30 00:17:19;;;;;;;37.38;5.88;;;;;;;;;;5109996;28;20479;-73
2022/01/30 00:19:51;;;;;;;36.72;5.85;;;;;;;;;;5109522;28;20059;-72
2022/01/30 00:25:03;;;;;;;33.95;5.82;;;;;;;;;;5108898;28;20052;-72
2022/01/30 00:27:43;;;;;;;28.20;4.90;;;6.80;99.90;;;;;;5091791;28;20047;-71
2022/01/30 00:30:12;;;;;;;32.45;5.68;;;;;;;;;;5109036;28;20122;-72
2022/01/30 00:32:38;;;;;;;33.90;5.03;;;;;;;;;;5109580;28;20399;-72
2022/01/30 00:35:08;;;;;;;29.83;5.38;;;6.60;99.90;;;;;;5110713;28;20043;-72
2022/01/30 00:37:39;;;;;;;35.45;5.80;;;6.80;99.90;;;;;;5109462;28;20062;-71
2022/01/30 00:40:06;;;;;;;32.60;5.50;;;;;;;;;;5110663;28;20137;-72
2022/01/30 00:42:32;;;;;;;34.38;5.50;;;6.70;99.90;;;;;;5111493;28;20046;-71
2022/01/30 00:44:57;;;;;;;33.28;5.50;;;6.90;99.90;;;;;;5111517;28;20044;-71
2022/01/30 00:47:25;;;;;;;28.00;5.38;;;5.70;99.90;;;;;;5093223;28;20044;-71
2022/01/30 00:49:51;;;;;;;29.33;5.53;;;6.40;99.90;;;;;;5109901;28;20065;-72
2022/01/30 00:52:17;;;;;;;25.73;4.90;;;6.50;99.90;;;;;;5111539;28;20047;-71
2022/01/30 00:54:46;;;;;;;31.58;5.38;;;6.10;99.90;;;;;;5111647;28;20035;-71
2022/01/30 00:57:14;;;;;;;34.47;5.40;;;6.10;99.90;;;;;;5111212;28;20047;-72
2022/01/30 00:59:40;;;;;;;29.15;5.30;;;;;;;;;;5111192;28;20093;-71
2022/01/30 01:02:06;;;;;;;26.23;5.68;;;6.10;99.90;;;;;;5111330;28;20115;-71
2022/01/30 01:04:32;;;;;;;31.00;5.25;;;;;;;;;;5111070;28;20122;-72
2022/01/30 01:06:57;;;;;;;23.63;4.57;;;6.20;99.90;;;;;;5110971;28;20376;-71
2022/01/30 01:09:31;;;;;;;33.58;5.85;;;;;;;;;;5110517;28;20069;-72
2022/01/30 01:25:18;;;;;;;26.88;4.88;;;5.50;99.90;;;;;;5110898;28;20518;-73
2022/01/30 01:27:44;;;;;;;29.30;4.65;;;;;;;;;;5110990;28;20091;-73
2022/01/30 01:30:10;;;;;;;24.55;4.60;;;5.80;99.90;;;;;;5110852;28;20058;-73
2022/01/30 01:32:38;;;;;;;28.17;4.72;;;5.30;99.90;;;;;;5109541;28;20043;-73
2022/01/30 01:35:04;;;;;;;25.63;4.97;;;8.10;99.90;;;;;;5110215;28;20395;-72
2022/01/30 01:37:31;;;;;;;35.03;5.43;;;6.00;99.90;;;;;;5126778;28;20828;-73
2022/01/30 01:39:58;;;;;;;28.00;5.47;;;5.30;99.90;;;;;;5109407;28;20047;-73
2022/01/30 01:42:27;;;;;;;29.77;5.00;;;5.20;99.90;;;;;;5109322;28;20055;-73
2022/01/30 01:44:56;;;;;;;29.58;4.95;;;5.40;99.90;;;;;;5110807;28;20047;-73
2022/01/30 01:47:23;;;;;;;30.05;5.30;;;;;;;;;;5109256;28;20109;-73
2022/01/30 01:49:51;;;;;;;29.10;4.78;;;;;;;;;;5109211;28;20056;-73
2022/01/30 01:54:44;;;;;;;37.05;6.22;;;5.40;99.90;;;;;;5108961;28;20112;-73
2022/01/30 01:57:10;;;;;;;35.88;6.45;;;;;;;;;;5109560;28;20055;-73
2022/01/30 01:59:36;;;;;;;34.90;5.82;;;;;;;;;;5109126;28;20055;-73
2022/01/30 02:02:03;;;;;;;28.98;5.63;;;5.20;99.90;;;;;;5110491;28;20071;-72
2022/01/30 02:04:29;;;;;;;32.20;5.53;;;;;;;;;;5110931;28;20044;-73
2022/01/30 02:07:30;;;;;;;29.10;5.90;;;5.60;99.90;;;;;;5109452;28;20047;-73
2022/01/30 02:09:50;;;;;;;30.10;5.55;;;5.30;99.90;;;;;;5109202;28;20369;-73
2022/01/30 02:12:26;;;;;;;33.50;5.72;;;5.40;99.90;;;;;;5091929;28;20511;-72
2022/01/30 02:26:18;;;;;;;30.45;5.00;;;5.90;99.90;;;;;;4994864;28;20410;-71
2022/01/30 02:28:43;;;;;;;38.25;6.40;;;5.70;99.90;;;;;;4994356;28;20062;-71
2022/01/30 02:31:14;;;;;;;31.73;5.88;;;;;;;;;;4994719;28;20045;-71
2022/01/30 02:33:45;;;;;;;25.63;5.35;;;5.40;99.90;;;;;;5011273;28;20046;-71
2022/01/30 02:36:10;;;;;;;31.88;5.70;;;5.20;99.90;;;;;;4992854;28;20065;-71
2022/01/30 02:38:37;;;;;;;34.13;5.90;;;;;;;;;;4992534;28;20049;-71
2022/01/30 02:41:14;;;;;;;39.45;5.85;;;5.70;99.90;;;;;;4992643;28;20057;-72
2022/01/30 02:43:53;;;;;;;29.67;5.78;;;5.80;99.90;;;;;;4992836;28;20434;-71
2022/01/30 02:46:28;;;;;;;26.90;5.78;;;;;;;;;;4992906;28;20085;-71
2022/01/30 02:48:58;;;;;;;29.48;5.47;;;5.60;99.90;;;;;;5015838;28;20053;-71
2022/01/30 02:51:32;;;;;;;39.22;7.00;;;5.90;99.90;;;;;;5050585;28;20571;-71
2022/01/30 02:54:05;;;;;;;33.97;5.78;;;;;;;;;;5050619;28;20111;-71
2022/01/30 02:56:34;;;;;;;34.40;5.82;;;5.20;99.90;;;;;;5050485;28;20049;-72
2022/01/30 02:59:00;;;;;;;31.80;5.95;;;;;;;;;;5033853;28;20052;-72
2022/01/30 03:01:26;;;;;;;35.38;6.70;;;;;;;;;;5109494;28;20410;-73
2022/01/30 03:03:51;;;;;;;38.83;6.15;;;5.80;99.90;;;;;;5112226;28;20051;-73
2022/01/30 03:06:17;;;;;;;37.97;6.32;;;6.10;99.90;;;;;;5112197;28;20036;-73
2022/01/30 03:08:43;;;;;;;38.88;6.70;;;5.80;99.90;;;;;;5111826;28;20040;-72
2022/01/30 03:11:09;;;;;;;35.80;6.38;;;6.00;99.90;;;;;;5111673;28;20046;-72
2022/01/30 03:13:35;;;;;;;35.65;6.25;;;5.60;99.90;;;;;;5111894;28;20066;-72
2022/01/30 03:16:03;;;;;;;42.28;6.43;;;;;;;;;;5113065;28;20056;-72
2022/01/30 03:18:30;;;;;;;39.20;6.63;;;6.00;99.90;;;;;;5111622;28;20040;-72
2022/01/30 03:20:56;;;;;;;39.20;6.70;;;5.70;99.90;;;;;;5113032;28;20039;-72
2022/01/30 03:23:21;;;;;;;37.03;6.22;;;6.30;99.90;;;;;;5111478;28;20066;-71
2022/01/30 03:25:53;;;;;;;38.50;6.50;;;5.80;99.90;;;;;;5111629;28;20066;-71
2022/01/30 03:28:21;;;;;;;37.22;6.70;;;5.30;99.90;;;;;;5112099;28;20459;-71
2022/01/30 03:30:48;;;;;;;30.80;5.57;;;;;;;;;;5112096;28;20499;-71
2022/01/30 03:33:14;;;;;;;32.83;6.07;;;5.30;99.90;;;;;;5112337;28;20047;-72
2022/01/30 03:35:40;;;;;;;28.48;5.75;;;;;;;;;;5112096;28;20043;-71
2022/01/30 03:38:06;;;;;;;30.00;5.80;;;5.20;99.90;;;;;;5112973;28;20208;-71
2022/01/30 03:40:32;;;;;;;31.25;5.60;;;;;;;;;;5111678;28;20546;-71
2022/01/30 03:42:58;;;;;;;35.63;6.53;;;5.20;99.90;;;;;;5111280;28;20104;-71
2022/01/30 03:45:24;;;;;;;36.70;6.05;;;;;;;;;;5112639;28;20047;-71
2022/01/30 03:47:52;;;;;;;35.85;6.30;;;5.00;99.90;;;;;;5111483;28;20402;-71
2022/01/30 03:50:18;;;;;;;41.90;6.00;;;;;;;;;;5113060;28;20498;-71
2022/01/30 03:52:44;;;;;;;38.22;6.50;;;;;;;;;;5111200;28;20554;-71
2022/01/30 03:55:09;;;;;;;33.70;6.10;;;5.00;99.90;;;;;;5111128;28;20039;-71
2022/01/30 03:57:35;;;;;;;33.20;6.55;;;;;;;;;;5110962;28;20047;-70
2022/01/30 04:00:03;;;;;;;45.08;7.38;;;5.40;99.90;;;;;;5111314;28;20047;-70
2022/01/30 04:02:29;;;;;;;37.03;6.88;;;;;;;;;;5112458;28;20057;-70
2022/01/30 04:04:55;;;;;;;39.60;6.57;;;;;;;;;;5110931;28;20081;-70
2022/01/30 04:07:21;;;;;;;34.97;6.93;;;5.60;99.90;;;;;;5111192;28;20051;-70
2022/01/30 04:09:47;;;;;;;43.00;6.70;;;5.50;99.90;;;;;;5111220;28;20051;-70
2022/01/30 04:12:13;;;;;;;42.28;7.95;;;5.70;99.90;;;;;;5112739;28;20130;-71
2022/01/30 04:14:39;;;;;;;44.30;7.45;;;5.50;99.90;;;;;;5112348;28;20039;-71
2022/01/30 04:17:09;;;;;;;47.42;7.40;;;5.60;99.90;;;;;;5112043;28;20499;-70
2022/01/30 04:19:35;;;;;;;44.40;7.35;;;;;;;;;;5110957;28;20054;-71
2022/01/30 04:22:01;;;;;;;41.60;7.38;;;5.70;99.90;;;;;;5112194;28;20126;-71
2022/01/30 04:24:26;;;;;;;41.38;7.40;;;5.50;99.90;;;;;;5111253;28;20130;-70
2022/01/30 04:26:53;;;;;;;44.08;7.85;;;5.50;99.90;;;;;;5110868;28;20039;-71
2022/01/30 04:29:18;;;;;;;44.83;7.82;;;5.60;99.90;;;;;;5112184;28;20043;-71
2022/01/30 04:31:48;;;;;;;45.92;7.50;;;5.60;99.90;;;;;;5110778;28;20051;-70
2022/01/30 04:34:15;;;;;;;41.58;8.00;;;5.60;99.90;;;;;;5110182;28;20044;-71
2022/01/30 04:36:55;;;;;;;42.72;7.82;;;5.70;99.90;;;;;;5110083;28;20075;-71
2022/01/30 04:42:20;;;;;;;47.80;7.55;;;5.70;99.90;;;;;;5111523;28;20079;-70
2022/01/30 04:53:09;;;;;;;55.28;8.75;;;5.70;99.90;;;;;;5111436;28;20043;-70
2022/01/30 04:58:25;;;;;;;45.45;7.57;;;5.70;99.90;;;;;;5111817;28;20047;-71
2022/01/30 05:03:50;;;;;;;46.10;8.23;;;6.10;99.90;;;;;;5110134;28;20191;-70
2022/01/30 05:06:19;;;;;;;38.67;7.00;;;6.10;99.90;;;;;;5110019;28;20086;-71
2022/01/30 05:08:45;;;;;;;39.80;7.35;;;;;;;;;;5109983;28;20044;-71
2022/01/30 05:11:11;;;;;;;43.25;7.30;;;5.60;99.90;;;;;;5110137;28;20046;-70
2022/01/30 05:13:43;;;;;;;38.95;7.20;;;4.90;99.90;;;;;;5110368;28;20056;-71
2022/01/30 05:16:09;;;;;;;41.85;8.05;;;5.40;99.90;;;;;;5110218;28;20146;-70
2022/01/30 05:18:35;;;;;;;41.95;7.55;;;5.40;99.90;;;;;;5110442;28;20421;-70
2022/01/30 05:21:01;;;;;;;44.72;7.47;;;;;;;;;;5109787;28;20054;-70
2022/01/30 05:23:27;;;;;;;39.40;7.45;;;5.10;99.90;;;;;;5111042;28;20048;-70
2022/01/30 05:25:54;;;;;;;49.08;8.20;;;;;;;;;;5109892;28;20046;-70
2022/01/30 05:28:22;;;;;;;42.92;7.60;;;5.40;99.90;;;;;;5109644;28;20428;-71
2022/01/30 05:30:49;;;;;;;53.75;8.13;;;5.00;99.90;;;;;;5110969;28;20123;-70
2022/01/30 05:33:15;;;;;;;46.72;8.57;;;5.30;99.90;;;;;;5110901;28;20039;-70
2022/01/30 05:35:41;;;;;;;42.60;8.18;;;4.90;99.90;;;;;;5109803;28;20100;-71
2022/01/30 05:38:07;;;;;;;53.83;8.65;;;5.10;99.90;;;;;;5110138;28;20043;-70
2022/01/30 05:40:37;;;;;;;55.75;9.45;;;5.10;99.90;;;;;;5093000;28;20608;-70
2022/01/30 05:43:27;;;;;;;54.63;9.20;;;4.90;99.90;;;;;;5108157;28;20134;-70
2022/01/30 05:46:00;;;;;;;49.17;8.52;;;4.90;99.90;;;;;;5092355;28;20047;-70
2022/01/30 05:48:26;;;;;;;57.00;9.35;;;5.00;99.90;;;;;;5110672;28;20052;-70
2022/01/30 05:50:51;;;;;;;67.82;9.82;;;5.00;99.90;;;;;;5092446;28;20067;-70
2022/01/30 05:53:17;;;;;;;43.55;7.68;;;;;;;;;;5092637;28;20380;-71
2022/01/30 05:55:45;;;;;;;42.97;8.07;;;;;;;;;;5110793;28;20046;-72
2022/01/30 05:58:11;;;;;;;39.65;7.70;;;;;;;;;;5113310;28;20051;-73
2022/01/30 06:00:37;;;;;;;46.70;8.77;;;;;;;;;;5114684;28;20411;-72
2022/01/30 06:03:03;;;;;;;50.90;8.90;;;;;;;;;;5113413;28;20502;-72
2022/01/30 06:05:29;;;;;;;57.70;9.45;;;4.90;99.90;;;;;;5114459;28;20122;-73
2022/01/30 06:07:56;;;;;;;52.58;9.20;;;5.10;99.90;;;;;;5114467;28;20123;-73
2022/01/30 06:10:25;;;;;;;52.28;8.77;;;5.00;99.90;;;;;;5114684;28;20054;-73
2022/01/30 06:12:53;;;;;;;55.33;9.43;;;5.00;99.90;;;;;;5114409;28;20054;-71
2022/01/30 06:15:19;;;;;;;63.53;9.57;;;3.80;99.90;;;;;;5112906;28;20075;-71
2022/01/30 06:17:45;;;;;;;50.08;9.38;;;4.80;99.90;;;;;;5114349;28;20070;-71
2022/01/30 06:20:12;;;;;;;63.38;10.23;;;4.60;99.90;;;;;;5113100;28;20048;-71
2022/01/30 06:22:39;;;;;;;58.10;9.63;;;4.50;99.90;;;;;;5113009;28;20047;-71
2022/01/30 06:25:05;;;;;;;57.13;9.65;;;4.60;99.90;;;;;;5114113;28;20487;-71
2022/01/30 06:27:31;;;;;;;65.95;10.57;;;;;;;;;;5129858;27;20089;-71
2022/01/30 06:29:57;;;;;;;61.95;10.40;;;4.90;99.90;;;;;;5112622;28;20043;-72
2022/01/30 06:32:23;;;;;;;59.53;10.40;;;5.20;99.90;;;;;;5112723;28;20035;-72
2022/01/30 06:34:49;;;;;;;66.80;11.18;;;;;;;;;;5112701;28;20511;-73
2022/01/30 06:37:15;;;;;;;63.85;9.80;;;5.10;99.90;;;;;;5114204;28;20043;-72
2022/01/30 06:39:43;;;;;;;60.13;10.70;;;4.90;99.90;;;;;;5112741;28;20087;-72
2022/01/30 06:42:09;;;;;;;61.17;10.18;;;;;;;;;;5112685;28;20047;-72
2022/01/30 06:44:35;;;;;;;65.00;10.52;;;5.20;99.90;;;;;;5095597;28;20494;-72
2022/01/30 06:47:01;;;;;;;61.50;9.68;;;;;;;;;;5112451;28;20046;-72
2022/01/30 06:49:27;;;;;;;57.70;9.48;;;5.30;99.90;;;;;;5112403;28;20039;-71
2022/01/30 06:51:56;;;;;;;64.47;9.63;;;5.10;99.90;;;;;;5112594;28;20399;-71
2022/01/30 06:54:22;;;;;;;57.10;9.65;;;5.20;99.90;;;;;;5095015;28;20118;-71
2022/01/30 06:56:48;;;;;;;53.30;9.43;;;5.30;99.90;;;;;;5112287;28;20048;-72
2022/01/30 06:59:14;;;;;;;58.63;10.18;;;;;;;;;;5112223;28;20398;-72
2022/01/30 07:01:39;;;;;;;58.88;9.70;;;5.30;99.90;;;;;;5112417;28;20043;-73
2022/01/30 07:04:06;;;;;;;66.53;10.15;;;;;;;;;;5112329;28;20144;-72
2022/01/30 07:06:32;;;;;;;63.38;10.48;;;5.00;99.90;;;;;;5112163;28;20498;-72
2022/01/30 07:08:58;;;;;;;52.30;10.45;;;5.30;99.90;;;;;;5094696;28;20100;-72
2022/01/30 07:11:24;;;;;;;60.58;9.70;;;;;;;;;;5112485;28;20035;-70
2022/01/30 07:13:50;;;;;;;54.88;9.32;;;;;;;;;;5112310;28;20138;-70
2022/01/30 07:16:16;;;;;;;63.25;10.45;;;;;;;;;;5111878;28;20055;-71
2022/01/30 07:18:42;;;;;;;59.20;9.40;;;5.00;99.90;;;;;;5111993;28;20057;-71
2022/01/30 07:21:09;;;;;;;56.35;9.85;;;4.90;99.90;;;;;;5112141;28;20054;-71
2022/01/30 07:23:38;;;;;;;64.50;10.55;;;5.10;99.90;;;;;;5111918;28;20433;-71
2022/01/30 07:26:04;;;;;;;57.10;10.07;;;;;;;;;;5111920;28;20150;-70
2022/01/30 07:28:30;;;;;;;56.28;9.68;;;5.40;99.90;;;;;;5094484;28;20040;-72
2022/01/30 07:30:56;;;;;;;67.18;10.32;;;5.20;99.90;;;;;;5094681;28;20050;-72
2022/01/30 07:33:23;;;;;;;55.50;9.82;;;5.40;99.90;;;;;;5111332;28;20031;-72
2022/01/30 07:35:50;;;;;;;59.83;10.20;;;5.20;99.90;;;;;;5111473;28;20112;-72
2022/01/30 07:38:16;;;;;;;64.35;11.50;;;5.30;99.90;;;;;;5111709;28;20062;-72
2022/01/30 07:40:43;;;;;;;53.53;10.00;;;5.30;99.90;;;;;;5111540;28;20047;-72
2022/01/30 07:43:09;;;;;;;52.85;10.32;;;5.10;99.90;;;;;;5111294;28;20104;-72
2022/01/30 07:45:35;;;;;;;66.80;10.15;;;5.50;99.90;;;;;;5128747;27;20860;-72
2022/01/30 07:48:04;;;;;;;57.55;10.40;;;5.40;99.90;;;;;;5111259;28;20126;-72
2022/01/30 07:50:30;;;;;;;59.95;10.20;;;5.80;99.90;;;;;;5094116;28;20575;-72
2022/01/30 07:52:56;;;;;;;56.35;9.93;;;;;;;;;;5111155;28;20131;-72
2022/01/30 07:55:22;;;;;;;59.53;9.88;;;5.90;99.90;;;;;;5111506;28;20376;-72
2022/01/30 07:57:47;;;;;;;62.75;10.02;;;5.60;99.90;;;;;;5111052;28;20051;-72
2022/01/30 08:00:14;;;;;;;62.63;10.43;;;5.70;99.90;;;;;;5110809;28;20086;-72
2022/01/30 08:02:39;;;;;;;61.42;10.05;;;5.60;99.90;;;;;;5111031;28;20048;-71
2022/01/30 08:05:06;;;;;;;61.95;10.80;;;5.80;99.90;;;;;;5128084;27;20459;-72
2022/01/30 08:07:32;;;;;;;63.33;10.40;;;;;;;;;;5110808;28;20039;-71
2022/01/30 08:09:59;;;;;;;68.63;10.50;;;;;;;;;;5110592;28;20040;-72
2022/01/30 08:12:24;;;;;;;76.40;11.38;;;5.50;99.90;;;;;;5110242;28;20050;-72
2022/01/30 08:14:50;;;;;;;62.70;10.32;;;;;;;;;;5110915;28;20047;-72
2022/01/30 08:17:21;;;;;;;60.80;10.50;;;5.80;99.90;;;;;;5093567;28;20059;-72
2022/01/30 08:19:50;;;;;;;54.25;10.43;;;5.60;99.90;;;;;;5099457;27;20423;-72
2022/01/30 08:22:16;;;;;;;60.17;10.05;;;5.10;99.90;;;;;;5119579;27;20055;-72
2022/01/30 08:24:42;;;;;;;57.53;9.82;;;5.90;99.90;;;;;;5116497;27;20103;-72
2022/01/30 08:27:08;;;;;;;60.42;10.07;;;;;;;;;;5128025;27;20054;-72
2022/01/30 08:29:34;;;;;;;53.17;9.85;;;;;;;;;;5110155;28;20558;-72
2022/01/30 08:32:00;;;;;;;56.28;9.63;;;6.10;99.90;;;;;;5114855;27;20067;-72
2022/01/30 08:34:26;;;;;;;53.88;9.32;;;5.90;99.90;;;;;;5118522;27;20131;-72
2022/01/30 08:36:52;;;;;;;49.35;9.25;;;5.90;99.90;;;;;;5092879;28;20181;-72
2022/01/30 08:39:18;;;;;;;46.17;8.48;;;6.30;99.90;;;;;;5109657;28;20039;-71
2022/01/30 08:41:44;;;;;;;50.47;9.50;;;6.20;99.90;;;;;;5111108;28;20039;-72
2022/01/30 08:44:10;;;;;;;54.80;9.02;;;6.00;99.90;;;;;;5109174;28;20398;-72
2022/01/30 08:46:36;;;;;;;46.85;8.45;;;;;;;;;;5108736;28;20056;-72
2022/01/30 08:49:02;;;;;;;46.42;8.63;;;6.20;99.90;;;;;;5109225;28;20043;-72
2022/01/30 08:51:29;;;;;;;43.10;8.70;;;;;;;;;;5111064;28;20071;-71
2022/01/30 08:53:54;;;;;;;49.60;9.10;;;6.30;99.90;;;;;;5109123;28;20067;-72
2022/01/30 08:56:21;;;;;;;45.15;8.85;;;6.20;99.90;;;;;;5109274;28;20620;-72
2022/01/30 08:58:48;;;;;;;44.42;8.82;;;6.30;99.90;;;;;;5110426;28;20051;-72
2022/01/30 09:01:14;;;;;;;53.97;8.27;;;6.40;99.90;;;;;;5110391;28;20039;-72
2022/01/30 09:03:41;;;;;;;49.95;8.95;;;;;;;;;;5102752;28;20044;-73
2022/01/30 09:06:06;;;;;;;57.28;9.30;;;6.50;99.90;;;;;;5088386;28;20048;-72
2022/01/30 09:08:33;;;;;;;53.53;8.73;;;6.20;99.90;;;;;;5089946;28;20074;-73
2022/01/30 09:10:59;;;;;;;52.20;8.27;;;;;;;;;;5089212;28;20144;-72
2022/01/30 09:13:25;;;;;;;45.67;8.60;;;6.30;99.90;;;;;;5089165;28;20043;-73
2022/01/30 09:15:56;;;;;;;53.10;9.38;;;;;;;;;;5089783;28;20492;-72
2022/01/30 09:18:23;;;;;;;50.83;9.02;;;6.40;99.90;;;;;;5088598;28;20055;-71
2022/01/30 09:20:49;;;;;;;54.53;8.45;;;;;;;;;;5089959;28;20058;-72
2022/01/30 09:23:16;;;;;;;51.75;8.77;;;6.90;99.90;;;;;;5071539;28;20052;-72
2022/01/30 09:25:42;;;;;;;54.85;9.73;;;;;;;;;;5089770;28;20481;-72
2022/01/30 09:28:08;;;;;;;55.35;9.98;;;6.50;99.90;;;;;;5088055;28;20052;-72
2022/01/30 09:30:34;;;;;;;44.33;8.45;;;7.40;99.00;;;;;;5087886;28;20066;-72
2022/01/30 09:33:00;;;;;;;44.17;8.18;;;;;;;;;;5089233;28;20101;-72
2022/01/30 09:35:26;;;;;;;45.38;8.60;;;8.40;99.90;;;;;;5088202;28;20048;-72
2022/01/30 09:37:52;;;;;;;58.45;8.52;;;9.10;98.90;;;;;;5089633;28;20557;-72
2022/01/30 09:40:18;;;;;;;53.05;8.68;;;9.00;99.90;;;;;;5087937;28;20115;-71
2022/01/30 09:42:46;;;;;;;53.50;9.02;;;8.10;99.90;;;;;;5089776;28;20040;-72
2022/01/30 09:45:14;;;;;;;48.72;8.98;;;7.90;99.90;;;;;;5088106;28;20039;-72
2022/01/30 09:47:40;;;;;;;56.75;9.77;;;8.50;99.90;;;;;;5105212;28;20052;-72
2022/01/30 09:50:07;;;;;;;58.65;9.57;;;7.70;99.90;;;;;;5087999;28;20080;-72
2022/01/30 09:52:33;;;;;;;52.92;8.93;;;7.70;99.90;;;;;;5088271;28;20090;-72
2022/01/30 09:54:59;;;;;;;49.25;9.52;;;;;;;;;;5088143;28;20404;-72
2022/01/30 09:57:25;;;;;;;53.95;8.80;;;7.60;99.90;;;;;;5088366;28;20127;-72
2022/01/30 09:59:51;;;;;;;50.90;9.43;;;;;;;;;;5088196;28;20119;-72
2022/01/30 10:02:16;;;;;;;49.17;9.02;;;7.50;99.90;;;;;;5087795;28;20097;-72
2022/01/30 10:04:42;;;;;;;48.20;9.27;;;7.80;99.90;;;;;;5120078;28;20051;-72
2022/01/30 10:07:14;;;;;;;48.40;8.55;;;7.80;99.90;;;;;;5090873;28;20043;-72
2022/01/30 10:09:49;;;;;;;45.03;8.70;;;7.90;99.90;;;;;;5108201;28;20097;-72
2022/01/30 10:12:20;;;;;;;58.80;9.47;;;7.70;98.20;;;;;;5093717;28;20032;-73
2022/01/30 10:15:16;;;;;;;61.28;10.20;;;7.70;97.70;;;;;;5098490;28;20281;-72
2022/01/30 10:17:48;;;;;;;57.67;9.57;;;7.80;97.50;;;;;;5088853;28;20105;-72
2022/01/30 10:20:16;;;;;;;47.25;9.02;;;7.90;96.70;;;;;;5106532;28;20052;-72
2022/01/30 10:22:58;;;;;;;53.55;9.85;;;7.70;96.70;;;;;;5108112;28;20376;-70
2022/01/30 10:25:25;;;;;;;60.67;9.93;;;7.80;96.30;;;;;;5107450;28;20052;-70
2022/01/30 10:28:14;;;;;;;45.42;9.13;;;7.90;99.90;;;;;;5107430;28;20069;-71
2022/01/30 10:30:44;;;;;;;54.17;9.02;;;7.70;99.90;;;;;;5106247;28;20039;-70
2022/01/30 10:33:15;;;;;;;52.70;9.65;;;7.80;98.50;;;;;;5105584;28;20901;-70
2022/01/30 10:35:52;;;;;;;53.03;9.27;;;7.70;97.80;;;;;;5110641;28;20174;-70
2022/01/30 10:38:26;;;;;;;51.95;9.77;;;7.60;98.30;;;;;;5107167;28;20058;-70
2022/01/30 10:41:16;;;;;;;56.47;9.57;;;7.90;98.20;;;;;;5107807;28;20044;-70
2022/01/30 10:43:57;;;;;;;51.33;8.82;;;8.00;97.60;;;;;;5109679;28;20039;-71
2022/01/30 10:46:23;;;;;;;48.33;8.52;;;;;;;;;;5110942;28;20040;-70
2022/01/30 10:49:07;;;;;;;58.17;9.95;;;8.10;96.30;;;;;;5109758;28;20082;-70
2022/01/30 10:51:33;;;;;;;52.35;8.98;;;8.50;99.90;;;;;;5110121;28;20028;-70
2022/01/30 10:54:13;;;;;;;49.58;9.18;;;8.10;97.10;;;;;;5112222;28;20127;-71
2022/01/30 10:56:39;;;;;;;49.70;8.73;;;8.20;95.30;;;;;;5107213;27;20091;-71
2022/01/30 10:59:21;;;;;;;42.38;8.40;;;8.10;99.90;;;;;;5110604;28;20040;-70
2022/01/30 11:01:51;;;;;;;42.50;8.43;;;8.00;99.90;;;;;;5127512;27;20063;-70
2022/01/30 11:04:29;;;;;;;44.15;8.48;;;8.40;99.90;;;;;;5099263;28;20048;-70
2022/01/30 11:06:56;;;;;;;51.55;9.27;;;8.50;92.50;;;;;;5090835;28;20117;-71
2022/01/30 11:09:47;;;;;;;47.53;8.38;;;8.10;99.90;;;;;;5090995;28;20488;-70
2022/01/30 11:12:15;;;;;;;43.28;8.32;;;;;;;;;;5090648;28;20051;-71
2022/01/30 11:17:18;;;;;;;49.55;8.57;;;8.60;99.90;;;;;;5090602;28;20609;-71
2022/01/30 11:19:47;;;;;;;48.53;8.50;;;8.70;95.70;;;;;;5092306;28;20051;-72
2022/01/30 11:22:18;;;;;;;48.33;8.50;;;8.40;99.90;;;;;;5073987;28;20132;-73
2022/01/30 11:24:45;;;;;;;53.78;9.65;;;;;;;;;;5090950;28;20054;-75
2022/01/30 11:27:12;;;;;;;63.13;9.98;;;7.90;95.40;;;;;;5103208;28;20492;-75
2022/01/30 11:29:38;;;;;;;57.40;9.85;;;8.50;99.90;;;;;;5110824;28;20156;-75
2022/01/30 11:32:06;;;;;;;52.97;9.98;;;8.20;99.90;;;;;;5112178;28;20574;-74
2022/01/30 11:34:40;;;;;;;51.00;9.18;;;8.40;99.90;;;;;;5110742;28;20054;-74
2022/01/30 11:37:07;;;;;;;51.97;9.07;;;8.40;99.90;;;;;;5111836;28;20052;-74
2022/01/30 11:39:40;;;;;;;54.72;9.32;;;7.80;96.10;;;;;;5111908;28;20115;-71
2022/01/30 11:42:18;;;;;;;56.35;9.77;;;7.60;98.70;;;;;;5110249;28;20043;-73
2022/01/30 11:44:46;;;;;;;60.30;10.00;;;7.90;96.00;;;;;;5112091;28;20098;-73
2022/01/30 11:47:12;;;;;;;49.53;8.60;;;;;;;;;;5110069;28;20047;-73
2022/01/30 11:49:43;;;;;;;51.83;9.27;;;8.10;99.90;;;;;;5110552;28;20053;-75
2022/01/30 11:52:11;;;;;;;52.10;9.45;;;8.00;94.30;;;;;;5093217;28;20051;-76
2022/01/30 11:54:41;;;;;;;49.25;9.45;;;8.00;99.90;;;;;;5127060;27;20051;-76
2022/01/30 11:57:22;;;;;;;38.50;8.48;;;8.40;99.90;;;;;;5110149;28;20043;-76
2022/01/30 11:59:56;;;;;;;44.17;8.13;;;8.40;99.90;;;;;;5110422;28;20364;-74
2022/01/30 12:02:31;;;;;;;43.50;8.60;;;8.40;99.80;;;;;;5093673;28;20502;-74
2022/01/30 12:05:10;;;;;;;35.42;7.55;;;8.40;88.50;;;;;;5093443;28;20048;-74
2022/01/30 12:07:47;;;;;;;42.45;8.10;;;8.40;88.40;;;;;;5110295;28;20453;-74
2022/01/30 12:10:15;;;;;;;44.10;8.45;;;8.60;98.50;;;;;;5109969;28;20483;-74
2022/01/30 12:12:49;;;;;;;43.70;7.68;;;8.80;87.20;;;;;;5109962;28;20043;-74
2022/01/30 12:15:38;;;;;;;42.33;7.85;;;8.40;97.40;;;;;;5109379;27;20048;-74
2022/01/30 12:18:15;;;;;;;48.58;8.50;;;8.90;97.20;;;;;;5108596;28;20525;-71
2022/01/30 12:21:09;;;;;;;42.78;7.90;;;9.50;85.70;;;;;;5110830;28;20504;-72
2022/01/30 12:23:39;;;;;;;39.28;8.23;;;8.70;84.40;;;;;;5111429;28;20446;-72
2022/01/30 12:26:08;;;;;;;34.47;7.38;;;9.70;88.40;;;;;;5110054;28;20058;-73
2022/01/30 12:28:45;;;;;;;44.60;8.07;;;9.00;89.80;;;;;;5109326;28;20047;-72
2022/01/30 12:31:34;;;;;;;40.25;7.40;;;8.90;96.10;;;;;;5110003;28;20046;-73
2022/01/30 12:34:14;;;;;;;36.75;7.43;;;9.50;96.10;;;;;;5092828;28;20055;-73
2022/01/30 12:36:42;;;;;;;35.97;7.55;;;8.80;94.70;;;;;;5111153;28;20040;-73
2022/01/30 12:39:11;;;;;;;38.33;7.60;;;9.00;79.60;;;;;;5110082;28;20109;-73
2022/01/30 12:41:39;;;;;;;41.83;7.55;;;9.10;88.40;;;;;;5110173;28;20047;-73
2022/01/30 12:44:10;;;;;;;42.30;7.93;;;9.30;94.60;;;;;;5110276;28;20194;-73
2022/01/30 12:46:54;;;;;;;38.05;7.82;;;9.10;82.10;;;;;;5127907;27;20055;-74
2022/01/30 12:49:28;;;;;;;48.65;7.95;;;8.60;94.70;;;;;;5110161;28;20062;-73
2022/01/30 12:51:56;;;;;;;37.20;7.72;;;9.10;82.60;;;;;;5109753;28;20043;-73
2022/01/30 12:54:28;;;;;;;42.55;7.65;;;9.20;95.90;;;;;;5123606;27;20160;-73
2022/01/30 12:56:55;;;;;;;39.17;8.60;;;9.20;81.70;;;;;;5109585;28;20032;-73
2022/01/30 12:59:25;;;;;;;43.40;7.65;;;9.50;88.10;;;;;;5106978;28;20491;-73
2022/01/30 13:01:51;;;;;;;42.83;7.75;;;9.50;94.80;;;;;;5109873;28;20114;-73
2022/01/30 13:04:18;;;;;;;37.28;7.05;;;9.40;90.90;;;;;;5109479;28;20142;-74
2022/01/30 13:06:48;;;;;;;45.92;7.80;;;9.40;92.00;;;;;;5110626;28;20118;-73
2022/01/30 13:09:30;;;;;;;38.10;7.15;;;9.60;94.40;;;;;;5106529;28;20048;-73
2022/01/30 13:11:59;;;;;;;38.33;7.70;;;9.20;94.40;;;;;;5106774;28;20074;-73
2022/01/30 13:14:37;;;;;;;38.47;7.55;;;9.10;93.70;;;;;;5109064;28;20088;-73
2022/01/30 13:17:04;;;;;;;39.35;6.85;;;9.80;94.10;;;;;;5107521;28;20063;-74
2022/01/30 13:19:29;;;;;;;38.08;7.22;;;9.40;94.30;;;;;;5110697;28;20044;-74
2022/01/30 13:21:55;;;;;;;40.85;7.35;;;9.10;94.40;;;;;;5110549;28;20042;-74
2022/01/30 13:24:21;;;;;;;39.83;7.18;;;;;;;;;;5110633;28;20108;-74
2022/01/30 13:26:54;;;;;;;38.20;7.30;;;9.10;93.90;;;;;;5109362;28;20091;-73
2022/01/30 13:29:22;;;;;;;36.47;8.05;;;9.10;94.10;;;;;;5124851;27;20047;-74
2022/01/30 13:31:49;;;;;;;40.15;7.95;;;9.70;94.90;;;;;;5109127;28;20076;-74
2022/01/30 13:34:19;;;;;;;52.20;7.90;;;9.60;83.10;;;;;;5110900;28;20361;-74
2022/01/30 13:36:53;;;;;;;42.58;9.30;;;9.30;82.20;;;;;;5110972;28;20039;-74
2022/01/30 13:39:31;;;;;;;46.63;8.57;;;9.70;83.70;;;;;;5107189;28;20054;-75
2022/01/30 13:47:54;;;;;;;40.92;7.93;;;9.30;82.80;;;;;;5108185;28;20047;-74
2022/01/30 13:50:22;;;;;;;42.72;7.82;;;9.10;87.30;;;;;;5109504;28;20044;-75
2022/01/30 13:53:25;;;;;;;48.42;8.02;;;9.50;96.30;;;;;;5110451;28;20052;-75
2022/01/30 13:56:02;;;;;;;48.17;7.60;;;8.80;84.30;;;;;;5105991;28;20048;-75
2022/01/30 13:58:50;;;;;;;39.85;7.88;;;8.60;94.40;;;;;;5108820;28;20051;-75
2022/01/30 14:01:18;;;;;;;35.75;7.88;;;8.50;97.40;;;;;;5092224;28;20056;-75
2022/01/30 14:03:46;;;;;;;41.60;7.45;;;8.40;97.70;;;;;;5110872;28;20491;-75
2022/01/30 14:06:22;;;;;;;33.83;7.07;;;8.10;89.30;;;;;;5110518;28;20368;-75
2022/01/30 14:08:57;;;;;;;38.75;7.00;;;8.00;95.60;;;;;;5124473;28;20055;-74
2022/01/30 14:11:37;;;;;;;38.65;6.90;;;8.20;95.60;;;;;;5110484;28;20475;-74